sensor_id;sensor_type;location;lat;lon;timestamp;P1;durP1;ratioP1;P2;durP2;ratioP2
30818;SDS011;17546;42.674;23.284;2023-10-13T00:00:25;24.50;;;8.55;;
30818;SDS011;17546;42.674;23.284;2023-10-13T00:02:54;16.42;;;7.80;;
30818;SDS011;17546;42.674;23.284;2023-10-13T00:05:21;12.50;;;7.70;;
30818;SDS011;17546;42.674;23.284;2023-10-13T00:07:46;17.23;;;8.80;;
30818;SDS011;17546;42.674;23.284;2023-10-13T00:10:12;22.13;;;8.77;;
30818;SDS011;17546;42.674;23.284;2023-10-13T00:12:37;28.45;;;8.68;;
30818;SDS011;17546;42.674;23.284;2023-10-13T00:15:03;18.45;;;7.95;;
30818;SDS011;17546;42.674;23.284;2023-10-13T00:17:32;25.27;;;8.65;;
30818;SDS011;17546;42.674;23.284;2023-10-13T00:19:57;22.20;;;8.30;;
30818;SDS011;17546;42.674;23.284;2023-10-13T00:22:25;16.00;;;8.75;;
30818;SDS011;17546;42.674;23.284;2023-10-13T00:24:52;19.33;;;8.75;;
30818;SDS011;17546;42.674;23.284;2023-10-13T00:27:28;15.18;;;8.40;;
30818;SDS011;17546;42.674;23.284;2023-10-13T00:30:06;19.52;;;8.60;;
30818;SDS011;17546;42.674;23.284;2023-10-13T00:32:48;18.58;;;8.07;;
30818;SDS011;17546;42.674;23.284;2023-10-13T00:35:24;21.73;;;8.43;;
30818;SDS011;17546;42.674;23.284;2023-10-13T00:37:57;17.75;;;7.90;;
30818;SDS011;17546;42.674;23.284;2023-10-13T00:40:43;18.00;;;8.32;;
30818;SDS011;17546;42.674;23.284;2023-10-13T00:43:16;24.08;;;8.07;;
30818;SDS011;17546;42.674;23.284;2023-10-13T00:45:46;19.13;;;7.88;;
30818;SDS011;17546;42.674;23.284;2023-10-13T00:48:22;25.52;;;8.13;;
30818;SDS011;17546;42.674;23.284;2023-10-13T00:51:08;23.10;;;8.15;;
30818;SDS011;17546;42.674;23.284;2023-10-13T00:53:43;18.83;;;8.15;;
30818;SDS011;17546;42.674;23.284;2023-10-13T00:56:10;21.52;;;8.18;;
30818;SDS011;17546;42.674;23.284;2023-10-13T00:58:47;15.05;;;7.68;;
30818;SDS011;17546;42.674;23.284;2023-10-13T01:01:17;28.52;;;8.10;;
30818;SDS011;17546;42.674;23.284;2023-10-13T01:03:46;19.08;;;8.15;;
30818;SDS011;17546;42.674;23.284;2023-10-13T01:06:14;18.55;;;8.30;;
30818;SDS011;17546;42.674;23.284;2023-10-13T01:08:41;16.48;;;7.82;;
30818;SDS011;17546;42.674;23.284;2023-10-13T01:11:09;18.75;;;8.38;;
30818;SDS011;17546;42.674;23.284;2023-10-13T01:13:35;15.65;;;8.07;;
30818;SDS011;17546;42.674;23.284;2023-10-13T01:16:21;17.73;;;7.53;;
30818;SDS011;17546;42.674;23.284;2023-10-13T01:18:46;15.40;;;8.10;;
30818;SDS011;17546;42.674;23.284;2023-10-13T01:21:15;19.00;;;8.07;;
30818;SDS011;17546;42.674;23.284;2023-10-13T01:23:44;21.55;;;7.93;;
30818;SDS011;17546;42.674;23.284;2023-10-13T01:26:11;19.33;;;7.82;;
30818;SDS011;17546;42.674;23.284;2023-10-13T01:28:38;18.48;;;8.27;;
30818;SDS011;17546;42.674;23.284;2023-10-13T01:31:11;25.20;;;8.65;;
30818;SDS011;17546;42.674;23.284;2023-10-13T01:33:50;16.17;;;8.38;;
30818;SDS011;17546;42.674;23.284;2023-10-13T01:36:19;19.02;;;8.48;;
30818;SDS011;17546;42.674;23.284;2023-10-13T01:38:45;14.85;;;7.68;;
30818;SDS011;17546;42.674;23.284;2023-10-13T01:41:12;14.23;;;7.40;;
30818;SDS011;17546;42.674;23.284;2023-10-13T01:43:38;17.70;;;7.85;;
30818;SDS011;17546;42.674;23.284;2023-10-13T01:46:04;18.10;;;8.02;;
30818;SDS011;17546;42.674;23.284;2023-10-13T01:48:29;23.90;;;7.75;;
30818;SDS011;17546;42.674;23.284;2023-10-13T01:50:57;17.40;;;7.82;;
30818;SDS011;17546;42.674;23.284;2023-10-13T01:53:25;15.95;;;7.60;;
30818;SDS011;17546;42.674;23.284;2023-10-13T01:55:54;17.33;;;8.13;;
30818;SDS011;17546;42.674;23.284;2023-10-13T01:58:22;20.52;;;8.00;;
30818;SDS011;17546;42.674;23.284;2023-10-13T02:00:48;20.88;;;8.70;;
30818;SDS011;17546;42.674;23.284;2023-10-13T02:03:14;17.38;;;8.00;;
30818;SDS011;17546;42.674;23.284;2023-10-13T02:05:45;14.68;;;7.75;;
30818;SDS011;17546;42.674;23.284;2023-10-13T02:08:15;20.42;;;7.68;;
30818;SDS011;17546;42.674;23.284;2023-10-13T02:10:51;19.33;;;8.23;;
30818;SDS011;17546;42.674;23.284;2023-10-13T02:13:19;22.30;;;7.70;;
30818;SDS011;17546;42.674;23.284;2023-10-13T02:15:47;14.00;;;7.43;;
30818;SDS011;17546;42.674;23.284;2023-10-13T02:18:17;20.80;;;8.10;;
30818;SDS011;17546;42.674;23.284;2023-10-13T02:20:51;19.70;;;8.30;;
30818;SDS011;17546;42.674;23.284;2023-10-13T02:23:24;22.02;;;8.15;;
30818;SDS011;17546;42.674;23.284;2023-10-13T02:25:54;18.30;;;7.82;;
30818;SDS011;17546;42.674;23.284;2023-10-13T02:28:29;16.73;;;7.97;;
30818;SDS011;17546;42.674;23.284;2023-10-13T02:31:01;17.92;;;8.00;;
30818;SDS011;17546;42.674;23.284;2023-10-13T02:33:28;16.98;;;7.72;;
30818;SDS011;17546;42.674;23.284;2023-10-13T02:36:01;18.40;;;8.55;;
30818;SDS011;17546;42.674;23.284;2023-10-13T02:38:30;22.65;;;8.57;;
30818;SDS011;17546;42.674;23.284;2023-10-13T02:41:14;20.15;;;8.60;;
30818;SDS011;17546;42.674;23.284;2023-10-13T02:43:53;19.58;;;8.57;;
30818;SDS011;17546;42.674;23.284;2023-10-13T02:46:19;17.48;;;8.05;;
30818;SDS011;17546;42.674;23.284;2023-10-13T02:48:48;21.83;;;7.85;;
30818;SDS011;17546;42.674;23.284;2023-10-13T02:51:22;20.40;;;8.45;;
30818;SDS011;17546;42.674;23.284;2023-10-13T02:53:56;14.68;;;8.15;;
30818;SDS011;17546;42.674;23.284;2023-10-13T02:56:28;19.70;;;7.72;;
30818;SDS011;17546;42.674;23.284;2023-10-13T02:58:54;19.42;;;8.70;;
30818;SDS011;17546;42.674;23.284;2023-10-13T03:01:21;20.10;;;8.63;;
30818;SDS011;17546;42.674;23.284;2023-10-13T03:03:52;15.40;;;8.13;;
30818;SDS011;17546;42.674;23.284;2023-10-13T03:06:24;20.85;;;7.95;;
30818;SDS011;17546;42.674;23.284;2023-10-13T03:08:57;22.08;;;8.65;;
30818;SDS011;17546;42.674;23.284;2023-10-13T03:11:38;17.88;;;8.00;;
30818;SDS011;17546;42.674;23.284;2023-10-13T03:14:07;22.40;;;8.63;;
30818;SDS011;17546;42.674;23.284;2023-10-13T03:16:33;16.48;;;8.13;;
30818;SDS011;17546;42.674;23.284;2023-10-13T03:18:59;14.07;;;8.07;;
30818;SDS011;17546;42.674;23.284;2023-10-13T03:21:25;20.38;;;7.97;;
30818;SDS011;17546;42.674;23.284;2023-10-13T03:23:58;16.80;;;7.90;;
30818;SDS011;17546;42.674;23.284;2023-10-13T03:26:31;21.17;;;7.93;;
30818;SDS011;17546;42.674;23.284;2023-10-13T03:29:00;19.33;;;8.05;;
30818;SDS011;17546;42.674;23.284;2023-10-13T03:31:28;19.08;;;8.07;;
30818;SDS011;17546;42.674;23.284;2023-10-13T03:33:54;18.52;;;8.43;;
30818;SDS011;17546;42.674;23.284;2023-10-13T03:36:25;19.60;;;8.43;;
30818;SDS011;17546;42.674;23.284;2023-10-13T03:39:10;17.42;;;7.70;;
30818;SDS011;17546;42.674;23.284;2023-10-13T03:41:36;23.27;;;8.45;;
30818;SDS011;17546;42.674;23.284;2023-10-13T03:44:03;20.27;;;8.52;;
30818;SDS011;17546;42.674;23.284;2023-10-13T03:46:42;20.08;;;8.23;;
30818;SDS011;17546;42.674;23.284;2023-10-13T03:49:10;16.88;;;8.15;;
30818;SDS011;17546;42.674;23.284;2023-10-13T03:51:41;30.63;;;9.38;;
30818;SDS011;17546;42.674;23.284;2023-10-13T03:54:06;17.17;;;7.68;;
30818;SDS011;17546;42.674;23.284;2023-10-13T03:56:34;19.58;;;8.32;;
30818;SDS011;17546;42.674;23.284;2023-10-13T03:59:03;18.40;;;8.48;;
30818;SDS011;17546;42.674;23.284;2023-10-13T04:01:34;15.27;;;8.30;;
30818;SDS011;17546;42.674;23.284;2023-10-13T04:04:10;24.38;;;10.05;;
30818;SDS011;17546;42.674;23.284;2023-10-13T04:06:40;21.80;;;9.65;;
30818;SDS011;17546;42.674;23.284;2023-10-13T04:11:55;22.70;;;9.00;;
30818;SDS011;17546;42.674;23.284;2023-10-13T04:14:34;28.33;;;10.05;;
30818;SDS011;17546;42.674;23.284;2023-10-13T04:17:22;23.15;;;9.57;;
30818;SDS011;17546;42.674;23.284;2023-10-13T04:19:49;19.27;;;9.43;;
30818;SDS011;17546;42.674;23.284;2023-10-13T04:22:33;29.25;;;10.32;;
30818;SDS011;17546;42.674;23.284;2023-10-13T04:25:18;25.70;;;9.82;;
30818;SDS011;17546;42.674;23.284;2023-10-13T04:28:03;44.97;;;10.32;;
30818;SDS011;17546;42.674;23.284;2023-10-13T04:30:40;36.90;;;10.90;;
30818;SDS011;17546;42.674;23.284;2023-10-13T04:33:21;27.45;;;10.32;;
30818;SDS011;17546;42.674;23.284;2023-10-13T04:39:02;27.45;;;9.98;;
30818;SDS011;17546;42.674;23.284;2023-10-13T04:41:34;30.88;;;10.32;;
30818;SDS011;17546;42.674;23.284;2023-10-13T04:44:07;23.90;;;9.55;;
30818;SDS011;17546;42.674;23.284;2023-10-13T04:46:52;26.25;;;9.43;;
30818;SDS011;17546;42.674;23.284;2023-10-13T04:49:25;25.40;;;10.50;;
30818;SDS011;17546;42.674;23.284;2023-10-13T04:52:16;37.53;;;9.93;;
30818;SDS011;17546;42.674;23.284;2023-10-13T04:55:03;34.97;;;10.15;;
30818;SDS011;17546;42.674;23.284;2023-10-13T04:57:48;38.35;;;10.18;;
30818;SDS011;17546;42.674;23.284;2023-10-13T05:00:18;31.15;;;9.57;;
30818;SDS011;17546;42.674;23.284;2023-10-13T05:02:44;26.33;;;10.50;;
30818;SDS011;17546;42.674;23.284;2023-10-13T05:05:26;24.48;;;10.43;;
30818;SDS011;17546;42.674;23.284;2023-10-13T05:07:58;41.33;;;11.00;;
30818;SDS011;17546;42.674;23.284;2023-10-13T05:10:41;32.30;;;9.85;;
30818;SDS011;17546;42.674;23.284;2023-10-13T05:13:25;30.45;;;10.27;;
30818;SDS011;17546;42.674;23.284;2023-10-13T05:16:09;24.52;;;9.48;;
30818;SDS011;17546;42.674;23.284;2023-10-13T05:18:53;30.58;;;10.95;;
30818;SDS011;17546;42.674;23.284;2023-10-13T05:21:37;30.95;;;10.00;;
30818;SDS011;17546;42.674;23.284;2023-10-13T05:24:21;34.53;;;11.20;;
30818;SDS011;17546;42.674;23.284;2023-10-13T05:27:05;31.05;;;11.50;;
30818;SDS011;17546;42.674;23.284;2023-10-13T05:29:49;33.92;;;11.27;;
30818;SDS011;17546;42.674;23.284;2023-10-13T05:32:33;31.52;;;10.70;;
30818;SDS011;17546;42.674;23.284;2023-10-13T05:35:19;31.42;;;12.20;;
30818;SDS011;17546;42.674;23.284;2023-10-13T05:38:04;41.10;;;12.48;;
30818;SDS011;17546;42.674;23.284;2023-10-13T05:41:00;28.55;;;12.68;;
30818;SDS011;17546;42.674;23.284;2023-10-13T05:43:47;41.00;;;12.15;;
30818;SDS011;17546;42.674;23.284;2023-10-13T05:46:32;34.67;;;10.85;;
30818;SDS011;17546;42.674;23.284;2023-10-13T05:49:05;30.63;;;11.85;;
30818;SDS011;17546;42.674;23.284;2023-10-13T05:51:34;42.08;;;11.90;;
30818;SDS011;17546;42.674;23.284;2023-10-13T05:54:03;34.13;;;12.05;;
30818;SDS011;17546;42.674;23.284;2023-10-13T05:56:44;32.30;;;12.35;;
30818;SDS011;17546;42.674;23.284;2023-10-13T05:59:30;36.35;;;12.85;;
30818;SDS011;17546;42.674;23.284;2023-10-13T06:02:15;55.07;;;15.90;;
30818;SDS011;17546;42.674;23.284;2023-10-13T06:05:10;49.95;;;15.73;;
30818;SDS011;17546;42.674;23.284;2023-10-13T06:07:55;39.33;;;14.40;;
30818;SDS011;17546;42.674;23.284;2023-10-13T06:10:40;41.70;;;14.85;;
30818;SDS011;17546;42.674;23.284;2023-10-13T06:13:25;38.60;;;15.90;;
30818;SDS011;17546;42.674;23.284;2023-10-13T06:16:10;38.22;;;14.93;;
30818;SDS011;17546;42.674;23.284;2023-10-13T06:18:54;37.90;;;15.30;;
30818;SDS011;17546;42.674;23.284;2023-10-13T06:21:39;46.55;;;13.93;;
30818;SDS011;17546;42.674;23.284;2023-10-13T06:24:23;44.05;;;14.50;;
30818;SDS011;17546;42.674;23.284;2023-10-13T06:27:07;42.55;;;17.08;;
30818;SDS011;17546;42.674;23.284;2023-10-13T06:29:51;51.45;;;18.35;;
30818;SDS011;17546;42.674;23.284;2023-10-13T06:32:18;45.97;;;16.42;;
30818;SDS011;17546;42.674;23.284;2023-10-13T06:34:44;49.60;;;17.40;;
30818;SDS011;17546;42.674;23.284;2023-10-13T06:37:16;52.85;;;16.50;;
30818;SDS011;17546;42.674;23.284;2023-10-13T06:39:51;70.38;;;18.17;;
30818;SDS011;17546;42.674;23.284;2023-10-13T06:42:24;42.15;;;15.05;;
30818;SDS011;17546;42.674;23.284;2023-10-13T06:44:55;50.03;;;15.55;;
30818;SDS011;17546;42.674;23.284;2023-10-13T06:47:23;45.75;;;15.50;;
30818;SDS011;17546;42.674;23.284;2023-10-13T06:49:49;42.58;;;17.05;;
30818;SDS011;17546;42.674;23.284;2023-10-13T06:52:19;49.00;;;17.38;;
30818;SDS011;17546;42.674;23.284;2023-10-13T06:54:50;45.05;;;16.38;;
30818;SDS011;17546;42.674;23.284;2023-10-13T06:57:16;39.53;;;16.13;;
30818;SDS011;17546;42.674;23.284;2023-10-13T06:59:48;44.85;;;16.45;;
30818;SDS011;17546;42.674;23.284;2023-10-13T07:02:14;47.35;;;17.02;;
30818;SDS011;17546;42.674;23.284;2023-10-13T07:04:49;49.42;;;17.38;;
30818;SDS011;17546;42.674;23.284;2023-10-13T07:07:32;43.95;;;17.50;;
30818;SDS011;17546;42.674;23.284;2023-10-13T07:09:58;43.53;;;18.00;;
30818;SDS011;17546;42.674;23.284;2023-10-13T07:12:24;50.70;;;17.52;;
30818;SDS011;17546;42.674;23.284;2023-10-13T07:14:53;47.95;;;18.10;;
30818;SDS011;17546;42.674;23.284;2023-10-13T07:17:39;47.10;;;18.35;;
30818;SDS011;17546;42.674;23.284;2023-10-13T07:20:05;48.42;;;18.33;;
30818;SDS011;17546;42.674;23.284;2023-10-13T07:22:48;45.58;;;19.63;;
30818;SDS011;17546;42.674;23.284;2023-10-13T07:25:28;44.78;;;18.70;;
30818;SDS011;17546;42.674;23.284;2023-10-13T07:27:58;42.10;;;18.92;;
30818;SDS011;17546;42.674;23.284;2023-10-13T07:30:24;45.67;;;17.73;;
30818;SDS011;17546;42.674;23.284;2023-10-13T07:32:52;45.90;;;19.55;;
30818;SDS011;17546;42.674;23.284;2023-10-13T07:35:18;58.83;;;19.70;;
30818;SDS011;17546;42.674;23.284;2023-10-13T07:37:51;53.78;;;19.48;;
30818;SDS011;17546;42.674;23.284;2023-10-13T07:40:22;45.08;;;18.20;;
30818;SDS011;17546;42.674;23.284;2023-10-13T07:42:51;42.10;;;18.77;;
30818;SDS011;17546;42.674;23.284;2023-10-13T07:45:17;46.78;;;17.98;;
30818;SDS011;17546;42.674;23.284;2023-10-13T07:47:57;47.40;;;18.88;;
30818;SDS011;17546;42.674;23.284;2023-10-13T07:50:24;42.80;;;18.80;;
30818;SDS011;17546;42.674;23.284;2023-10-13T07:52:53;45.65;;;18.15;;
30818;SDS011;17546;42.674;23.284;2023-10-13T07:55:30;59.25;;;19.08;;
30818;SDS011;17546;42.674;23.284;2023-10-13T07:57:59;52.30;;;19.75;;
30818;SDS011;17546;42.674;23.284;2023-10-13T08:00:26;56.05;;;19.25;;
30818;SDS011;17546;42.674;23.284;2023-10-13T08:03:04;62.80;;;19.45;;
30818;SDS011;17546;42.674;23.284;2023-10-13T08:05:41;42.35;;;18.33;;
30818;SDS011;17546;42.674;23.284;2023-10-13T08:08:23;54.42;;;22.65;;
30818;SDS011;17546;42.674;23.284;2023-10-13T08:11:00;57.55;;;22.10;;
30818;SDS011;17546;42.674;23.284;2023-10-13T08:13:33;68.75;;;22.08;;
30818;SDS011;17546;42.674;23.284;2023-10-13T08:16:14;59.95;;;22.13;;
30818;SDS011;17546;42.674;23.284;2023-10-13T08:18:50;63.72;;;22.92;;
30818;SDS011;17546;42.674;23.284;2023-10-13T08:21:16;54.85;;;21.50;;
30818;SDS011;17546;42.674;23.284;2023-10-13T08:23:51;66.63;;;21.92;;
30818;SDS011;17546;42.674;23.284;2023-10-13T08:26:23;66.68;;;21.63;;
30818;SDS011;17546;42.674;23.284;2023-10-13T08:29:04;59.90;;;21.52;;
30818;SDS011;17546;42.674;23.284;2023-10-13T08:31:48;52.47;;;19.70;;
30818;SDS011;17546;42.674;23.284;2023-10-13T08:34:29;60.80;;;18.42;;
30818;SDS011;17546;42.674;23.284;2023-10-13T08:37:04;61.75;;;19.20;;
30818;SDS011;17546;42.674;23.284;2023-10-13T08:39:48;49.08;;;17.90;;
30818;SDS011;17546;42.674;23.284;2023-10-13T08:42:33;49.42;;;17.02;;
30818;SDS011;17546;42.674;23.284;2023-10-13T08:45:06;54.33;;;18.33;;
30818;SDS011;17546;42.674;23.284;2023-10-13T08:47:46;56.58;;;17.85;;
30818;SDS011;17546;42.674;23.284;2023-10-13T08:50:19;51.15;;;17.65;;
30818;SDS011;17546;42.674;23.284;2023-10-13T08:53:06;59.53;;;16.17;;
30818;SDS011;17546;42.674;23.284;2023-10-13T08:58:37;55.30;;;17.88;;
30818;SDS011;17546;42.674;23.284;2023-10-13T09:01:20;56.10;;;16.80;;
30818;SDS011;17546;42.674;23.284;2023-10-13T09:04:14;52.83;;;17.17;;
30818;SDS011;17546;42.674;23.284;2023-10-13T09:06:47;59.92;;;16.95;;
30818;SDS011;17546;42.674;23.284;2023-10-13T09:09:26;53.03;;;17.15;;
30818;SDS011;17546;42.674;23.284;2023-10-13T09:11:53;43.85;;;16.40;;
30818;SDS011;17546;42.674;23.284;2023-10-13T09:14:33;61.55;;;16.02;;
30818;SDS011;17546;42.674;23.284;2023-10-13T09:17:01;56.58;;;15.90;;
30818;SDS011;17546;42.674;23.284;2023-10-13T09:22:54;52.45;;;14.95;;
30818;SDS011;17546;42.674;23.284;2023-10-13T09:25:26;50.17;;;13.55;;
30818;SDS011;17546;42.674;23.284;2023-10-13T09:28:00;46.38;;;12.48;;
30818;SDS011;17546;42.674;23.284;2023-10-13T09:30:47;53.95;;;12.68;;
30818;SDS011;17546;42.674;23.284;2023-10-13T09:33:32;60.42;;;12.38;;
30818;SDS011;17546;42.674;23.284;2023-10-13T09:36:01;52.65;;;10.88;;
30818;SDS011;17546;42.674;23.284;2023-10-13T09:38:46;58.55;;;11.27;;
30818;SDS011;17546;42.674;23.284;2023-10-13T09:41:32;38.90;;;10.50;;
30818;SDS011;17546;42.674;23.284;2023-10-13T09:44:02;38.97;;;9.52;;
30818;SDS011;17546;42.674;23.284;2023-10-13T09:46:28;54.33;;;9.95;;
30818;SDS011;17546;42.674;23.284;2023-10-13T09:48:59;42.30;;;9.40;;
30818;SDS011;17546;42.674;23.284;2023-10-13T09:51:32;44.03;;;8.45;;
30818;SDS011;17546;42.674;23.284;2023-10-13T09:54:00;42.35;;;8.63;;
30818;SDS011;17546;42.674;23.284;2023-10-13T09:56:47;45.58;;;8.05;;
30818;SDS011;17546;42.674;23.284;2023-10-13T09:59:24;27.95;;;7.90;;
30818;SDS011;17546;42.674;23.284;2023-10-13T10:01:59;38.50;;;7.80;;
30818;SDS011;17546;42.674;23.284;2023-10-13T10:04:33;40.05;;;8.02;;
30818;SDS011;17546;42.674;23.284;2023-10-13T10:07:07;40.25;;;7.63;;
30818;SDS011;17546;42.674;23.284;2023-10-13T10:09:37;29.33;;;7.80;;
30818;SDS011;17546;42.674;23.284;2023-10-13T10:17:55;32.92;;;7.68;;
30818;SDS011;17546;42.674;23.284;2023-10-13T10:20:33;22.30;;;6.90;;
30818;SDS011;17546;42.674;23.284;2023-10-13T10:23:33;32.00;;;7.55;;
30818;SDS011;17546;42.674;23.284;2023-10-13T10:26:13;28.15;;;6.93;;
30818;SDS011;17546;42.674;23.284;2023-10-13T10:28:41;24.10;;;7.25;;
30818;SDS011;17546;42.674;23.284;2023-10-13T10:31:08;32.47;;;7.15;;
30818;SDS011;17546;42.674;23.284;2023-10-13T10:33:38;25.42;;;7.00;;
30818;SDS011;17546;42.674;23.284;2023-10-13T10:36:04;23.98;;;6.38;;
30818;SDS011;17546;42.674;23.284;2023-10-13T10:38:31;26.27;;;6.00;;
30818;SDS011;17546;42.674;23.284;2023-10-13T10:41:05;24.33;;;6.32;;
30818;SDS011;17546;42.674;23.284;2023-10-13T10:43:37;21.70;;;6.22;;
30818;SDS011;17546;42.674;23.284;2023-10-13T10:46:12;22.48;;;6.30;;
30818;SDS011;17546;42.674;23.284;2023-10-13T10:48:38;30.30;;;5.70;;
30818;SDS011;17546;42.674;23.284;2023-10-13T10:51:08;21.98;;;5.90;;
30818;SDS011;17546;42.674;23.284;2023-10-13T10:53:49;17.80;;;5.00;;
30818;SDS011;17546;42.674;23.284;2023-10-13T10:56:17;31.42;;;4.97;;
30818;SDS011;17546;42.674;23.284;2023-10-13T10:59:01;13.48;;;5.20;;
30818;SDS011;17546;42.674;23.284;2023-10-13T11:01:27;16.95;;;5.10;;
30818;SDS011;17546;42.674;23.284;2023-10-13T11:04:04;18.45;;;5.53;;
30818;SDS011;17546;42.674;23.284;2023-10-13T11:06:36;18.25;;;5.63;;
30818;SDS011;17546;42.674;23.284;2023-10-13T11:09:07;21.20;;;5.45;;
30818;SDS011;17546;42.674;23.284;2023-10-13T11:11:56;18.73;;;4.63;;
30818;SDS011;17546;42.674;23.284;2023-10-13T11:14:26;15.45;;;4.15;;
30818;SDS011;17546;42.674;23.284;2023-10-13T11:16:53;19.33;;;4.72;;
30818;SDS011;17546;42.674;23.284;2023-10-13T11:19:35;17.77;;;4.90;;
30818;SDS011;17546;42.674;23.284;2023-10-13T11:24:57;21.48;;;5.03;;
30818;SDS011;17546;42.674;23.284;2023-10-13T11:27:33;13.80;;;4.80;;
30818;SDS011;17546;42.674;23.284;2023-10-13T11:30:13;13.23;;;4.28;;
30818;SDS011;17546;42.674;23.284;2023-10-13T11:32:44;16.33;;;4.50;;
30818;SDS011;17546;42.674;23.284;2023-10-13T11:35:12;15.00;;;4.20;;
30818;SDS011;17546;42.674;23.284;2023-10-13T11:37:50;13.43;;;3.38;;
30818;SDS011;17546;42.674;23.284;2023-10-13T11:40:28;18.48;;;3.53;;
30818;SDS011;17546;42.674;23.284;2023-10-13T11:43:33;19.33;;;4.10;;
30818;SDS011;17546;42.674;23.284;2023-10-13T11:46:12;15.10;;;3.85;;
30818;SDS011;17546;42.674;23.284;2023-10-13T11:48:43;17.33;;;3.63;;
30818;SDS011;17546;42.674;23.284;2023-10-13T11:51:13;10.48;;;3.42;;
30818;SDS011;17546;42.674;23.284;2023-10-13T11:53:44;15.63;;;3.80;;
30818;SDS011;17546;42.674;23.284;2023-10-13T11:56:10;16.30;;;3.83;;
30818;SDS011;17546;42.674;23.284;2023-10-13T11:58:36;14.15;;;3.70;;
30818;SDS011;17546;42.674;23.284;2023-10-13T12:01:02;13.88;;;3.63;;
30818;SDS011;17546;42.674;23.284;2023-10-13T12:03:37;10.52;;;3.33;;
30818;SDS011;17546;42.674;23.284;2023-10-13T12:06:25;13.77;;;3.30;;
30818;SDS011;17546;42.674;23.284;2023-10-13T12:09:06;16.42;;;3.70;;
30818;SDS011;17546;42.674;23.284;2023-10-13T12:11:48;19.42;;;3.60;;
30818;SDS011;17546;42.674;23.284;2023-10-13T12:14:19;23.27;;;3.55;;
30818;SDS011;17546;42.674;23.284;2023-10-13T12:16:46;14.80;;;3.53;;
30818;SDS011;17546;42.674;23.284;2023-10-13T12:19:19;17.35;;;4.20;;
30818;SDS011;17546;42.674;23.284;2023-10-13T12:21:52;20.73;;;3.28;;
30818;SDS011;17546;42.674;23.284;2023-10-13T12:24:21;15.82;;;4.07;;
30818;SDS011;17546;42.674;23.284;2023-10-13T12:26:55;11.07;;;3.38;;
30818;SDS011;17546;42.674;23.284;2023-10-13T12:29:25;10.27;;;2.92;;
30818;SDS011;17546;42.674;23.284;2023-10-13T12:31:57;10.10;;;3.08;;
30818;SDS011;17546;42.674;23.284;2023-10-13T12:34:49;17.60;;;3.45;;
30818;SDS011;17546;42.674;23.284;2023-10-13T12:40:09;25.25;;;3.33;;
30818;SDS011;17546;42.674;23.284;2023-10-13T12:42:57;11.65;;;3.25;;
30818;SDS011;17546;42.674;23.284;2023-10-13T12:45:42;16.00;;;3.53;;
30818;SDS011;17546;42.674;23.284;2023-10-13T12:48:27;16.30;;;3.22;;
30818;SDS011;17546;42.674;23.284;2023-10-13T12:51:12;12.68;;;3.20;;
30818;SDS011;17546;42.674;23.284;2023-10-13T12:53:56;14.68;;;3.20;;
30818;SDS011;17546;42.674;23.284;2023-10-13T12:56:29;12.85;;;3.80;;
30818;SDS011;17546;42.674;23.284;2023-10-13T12:58:55;20.40;;;6.50;;
30818;SDS011;17546;42.674;23.284;2023-10-13T13:01:21;17.45;;;4.43;;
30818;SDS011;17546;42.674;23.284;2023-10-13T13:03:48;16.50;;;3.42;;
30818;SDS011;17546;42.674;23.284;2023-10-13T13:06:20;16.13;;;3.40;;
30818;SDS011;17546;42.674;23.284;2023-10-13T13:08:51;20.52;;;3.22;;
30818;SDS011;17546;42.674;23.284;2023-10-13T13:11:19;18.45;;;3.45;;
30818;SDS011;17546;42.674;23.284;2023-10-13T13:13:45;10.95;;;3.85;;
30818;SDS011;17546;42.674;23.284;2023-10-13T13:16:12;17.50;;;3.70;;
30818;SDS011;17546;42.674;23.284;2023-10-13T13:18:38;17.35;;;3.42;;
30818;SDS011;17546;42.674;23.284;2023-10-13T13:21:04;18.80;;;3.42;;
30818;SDS011;17546;42.674;23.284;2023-10-13T13:23:31;13.95;;;3.47;;
30818;SDS011;17546;42.674;23.284;2023-10-13T13:25:57;23.77;;;3.67;;
30818;SDS011;17546;42.674;23.284;2023-10-13T13:28:23;14.25;;;3.20;;
30818;SDS011;17546;42.674;23.284;2023-10-13T13:30:49;21.45;;;3.25;;
30818;SDS011;17546;42.674;23.284;2023-10-13T13:33:16;9.57;;;2.72;;
30818;SDS011;17546;42.674;23.284;2023-10-13T13:35:48;8.80;;;3.10;;
30818;SDS011;17546;42.674;23.284;2023-10-13T13:38:14;11.15;;;3.35;;
30818;SDS011;17546;42.674;23.284;2023-10-13T13:40:47;12.55;;;3.03;;
30818;SDS011;17546;42.674;23.284;2023-10-13T13:43:19;17.70;;;3.95;;
30818;SDS011;17546;42.674;23.284;2023-10-13T13:46:03;21.95;;;3.75;;
30818;SDS011;17546;42.674;23.284;2023-10-13T13:48:34;15.10;;;3.53;;
30818;SDS011;17546;42.674;23.284;2023-10-13T13:51:04;11.88;;;3.15;;
30818;SDS011;17546;42.674;23.284;2023-10-13T13:53:31;13.65;;;3.45;;
30818;SDS011;17546;42.674;23.284;2023-10-13T13:56:03;12.52;;;3.65;;
30818;SDS011;17546;42.674;23.284;2023-10-13T13:58:29;13.95;;;3.83;;
30818;SDS011;17546;42.674;23.284;2023-10-13T14:01:01;18.48;;;3.83;;
30818;SDS011;17546;42.674;23.284;2023-10-13T14:03:37;16.17;;;5.10;;
30818;SDS011;17546;42.674;23.284;2023-10-13T14:06:19;15.70;;;4.03;;
30818;SDS011;17546;42.674;23.284;2023-10-13T14:08:53;18.67;;;3.80;;
30818;SDS011;17546;42.674;23.284;2023-10-13T14:11:20;22.23;;;4.03;;
30818;SDS011;17546;42.674;23.284;2023-10-13T14:14:06;12.32;;;4.55;;
30818;SDS011;17546;42.674;23.284;2023-10-13T14:16:52;18.80;;;4.32;;
30818;SDS011;17546;42.674;23.284;2023-10-13T14:19:18;21.65;;;5.43;;
30818;SDS011;17546;42.674;23.284;2023-10-13T14:24:23;17.40;;;4.70;;
30818;SDS011;17546;42.674;23.284;2023-10-13T14:29:32;16.13;;;4.30;;
30818;SDS011;17546;42.674;23.284;2023-10-13T14:31:58;16.05;;;4.25;;
30818;SDS011;17546;42.674;23.284;2023-10-13T14:34:24;25.05;;;4.10;;
30818;SDS011;17546;42.674;23.284;2023-10-13T14:36:51;26.13;;;4.63;;
30818;SDS011;17546;42.674;23.284;2023-10-13T14:39:19;13.02;;;4.25;;
30818;SDS011;17546;42.674;23.284;2023-10-13T14:41:46;20.38;;;3.88;;
30818;SDS011;17546;42.674;23.284;2023-10-13T14:44:13;24.55;;;5.65;;
30818;SDS011;17546;42.674;23.284;2023-10-13T14:46:39;17.80;;;4.47;;
30818;SDS011;17546;42.674;23.284;2023-10-13T14:49:04;18.08;;;5.30;;
30818;SDS011;17546;42.674;23.284;2023-10-13T14:51:30;23.35;;;5.40;;
30818;SDS011;17546;42.674;23.284;2023-10-13T14:53:57;25.50;;;5.03;;
30818;SDS011;17546;42.674;23.284;2023-10-13T14:56:24;24.15;;;4.22;;
30818;SDS011;17546;42.674;23.284;2023-10-13T14:58:52;19.15;;;4.75;;
30818;SDS011;17546;42.674;23.284;2023-10-13T15:01:18;16.05;;;4.40;;
30818;SDS011;17546;42.674;23.284;2023-10-13T15:03:49;26.88;;;4.57;;
30818;SDS011;17546;42.674;23.284;2023-10-13T15:06:20;18.20;;;4.35;;
30818;SDS011;17546;42.674;23.284;2023-10-13T15:08:50;23.52;;;4.40;;
30818;SDS011;17546;42.674;23.284;2023-10-13T15:11:17;32.35;;;6.70;;
30818;SDS011;17546;42.674;23.284;2023-10-13T15:13:45;22.58;;;4.40;;
30818;SDS011;17546;42.674;23.284;2023-10-13T15:18:46;26.98;;;4.45;;
30818;SDS011;17546;42.674;23.284;2023-10-13T15:21:22;21.83;;;5.10;;
30818;SDS011;17546;42.674;23.284;2023-10-13T15:26:25;21.83;;;4.43;;
30818;SDS011;17546;42.674;23.284;2023-10-13T15:28:51;25.75;;;5.18;;